createdAt,value
2018-09-09T00:01:38.118Z,15.50
2018-09-09T00:03:40.321Z,15.50
2018-09-09T00:05:42.460Z,15.50
2018-09-09T00:07:44.657Z,15.50
2018-09-09T00:09:46.818Z,15.60
2018-09-09T00:11:48.981Z,15.60
2018-09-09T00:13:51.149Z,15.60
2018-09-09T00:15:53.287Z,15.70
2018-09-09T00:17:55.423Z,15.60
2018-09-09T00:19:57.588Z,15.70
2018-09-09T00:21:59.757Z,15.70
2018-09-09T00:24:01.906Z,15.70
2018-09-09T00:26:04.384Z,15.70
2018-09-09T00:28:06.592Z,15.70
2018-09-09T00:30:08.726Z,15.70
2018-09-09T00:32:10.903Z,15.60
2018-09-09T00:34:13.059Z,15.60
2018-09-09T00:36:15.198Z,15.50
2018-09-09T00:38:17.331Z,15.50
2018-09-09T00:40:19.504Z,15.40
2018-09-09T00:42:21.671Z,15.30
2018-09-09T00:44:24.026Z,15.30
2018-09-09T00:46:26.200Z,15.30
2018-09-09T00:48:28.348Z,15.30
2018-09-09T00:50:36.299Z,15.30
2018-09-09T00:52:44.061Z,15.30
2018-09-09T00:54:46.286Z,15.30
2018-09-09T00:56:48.414Z,15.10
2018-09-09T00:58:50.581Z,15.20
2018-09-09T01:00:58.359Z,15.20
2018-09-09T01:03:00.625Z,15.20
2018-09-09T01:05:02.839Z,15.10
2018-09-09T01:07:05.029Z,15.00
2018-09-09T01:09:08.208Z,15.10
2018-09-09T01:11:10.536Z,15.00
2018-09-09T01:13:12.694Z,15.00
2018-09-09T01:15:14.830Z,15.00
2018-09-09T01:17:16.977Z,15.00
2018-09-09T01:19:19.142Z,15.00
2018-09-09T01:21:21.312Z,15.00
2018-09-09T01:23:23.489Z,14.90
2018-09-09T01:25:25.633Z,14.90
2018-09-09T01:27:27.874Z,14.90
2018-09-09T01:29:30.202Z,14.90
2018-09-09T01:31:32.407Z,14.90
2018-09-09T01:33:34.566Z,14.90
2018-09-09T01:35:36.738Z,14.80
2018-09-09T01:37:38.887Z,14.80
2018-09-09T01:39:41.050Z,14.80
2018-09-09T01:41:43.470Z,14.80
2018-09-09T01:43:45.629Z,14.70
2018-09-09T01:45:47.846Z,14.80
2018-09-09T01:47:50.510Z,14.80
2018-09-09T01:49:52.819Z,14.80
2018-09-09T01:51:54.946Z,14.80
2018-09-09T01:53:57.149Z,14.80
2018-09-09T01:56:00.063Z,14.90
2018-09-09T01:58:02.208Z,14.90
2018-09-09T02:00:04.660Z,14.80
2018-09-09T02:02:06.834Z,14.60
2018-09-09T02:04:09.015Z,14.60
2018-09-09T02:06:11.318Z,14.60
2018-09-09T02:08:13.507Z,14.60
2018-09-09T02:10:15.656Z,14.60
2018-09-09T02:12:17.825Z,14.60
2018-09-09T02:14:19.984Z,14.60
2018-09-09T02:16:22.101Z,14.60
2018-09-09T02:18:24.274Z,14.60
2018-09-09T02:20:26.487Z,14.50
2018-09-09T02:22:28.647Z,14.40
2018-09-09T02:24:30.801Z,14.50
2018-09-09T02:26:33.190Z,14.50
2018-09-09T02:28:35.348Z,14.40
2018-09-09T02:30:37.503Z,14.30
2018-09-09T02:32:39.682Z,14.30
2018-09-09T02:34:41.947Z,14.30
2018-09-09T02:36:44.106Z,14.30
2018-09-09T02:38:46.282Z,14.30
2018-09-09T02:40:48.450Z,14.30
2018-09-09T02:42:50.635Z,14.30
2018-09-09T02:44:52.783Z,14.30
2018-09-09T02:46:54.956Z,14.30
2018-09-09T02:48:57.126Z,14.30
2018-09-09T02:50:59.265Z,14.30
2018-09-09T02:53:01.385Z,14.20
2018-09-09T02:55:03.539Z,14.30
2018-09-09T02:57:05.692Z,14.40
2018-09-09T02:59:07.871Z,14.30
2018-09-09T03:01:10.032Z,14.40
2018-09-09T03:03:12.182Z,14.40
2018-09-09T03:05:14.707Z,14.30
2018-09-09T03:07:16.881Z,14.30
2018-09-09T03:09:19.049Z,14.30
2018-09-09T03:11:21.499Z,14.30
2018-09-09T03:13:23.659Z,14.30
2018-09-09T03:15:25.806Z,14.30
2018-09-09T03:17:28.003Z,14.30
2018-09-09T03:19:30.718Z,14.20
2018-09-09T03:21:32.851Z,14.30
2018-09-09T03:23:35.044Z,14.30
2018-09-09T03:25:37.190Z,14.40
2018-09-09T03:27:39.354Z,14.50
2018-09-09T03:29:41.538Z,14.40
2018-09-09T03:31:43.708Z,14.40
2018-09-09T03:33:45.867Z,14.40
2018-09-09T03:35:48.001Z,14.40
2018-09-09T03:37:50.211Z,14.40
2018-09-09T03:39:52.419Z,14.30
2018-09-09T03:41:54.883Z,14.30
2018-09-09T03:43:57.030Z,14.30
2018-09-09T03:45:59.175Z,14.30
2018-09-09T03:48:01.324Z,14.30
2018-09-09T03:50:03.537Z,14.30
2018-09-09T03:52:05.755Z,14.30
2018-09-09T03:54:07.970Z,14.30
2018-09-09T03:56:10.134Z,14.30
2018-09-09T03:58:12.282Z,14.20
2018-09-09T04:00:14.469Z,14.20
2018-09-09T04:02:16.648Z,14.20
2018-09-09T04:04:18.778Z,14.20
2018-09-09T04:06:21.440Z,14.10
2018-09-09T04:08:23.651Z,14.10
2018-09-09T04:10:25.895Z,14.20
2018-09-09T04:12:28.138Z,14.20
2018-09-09T04:14:30.272Z,14.20
2018-09-09T04:16:32.486Z,14.10
2018-09-09T04:18:34.646Z,14.10
2018-09-09T04:20:36.854Z,14.10
2018-09-09T04:22:39.007Z,14.10
2018-09-09T04:24:41.522Z,14.20
2018-09-09T04:26:43.658Z,14.20
2018-09-09T04:28:45.848Z,14.20
2018-09-09T04:30:48.342Z,14.20
2018-09-09T04:32:50.527Z,14.20
2018-09-09T04:34:52.702Z,14.10
2018-09-09T04:36:54.889Z,14.20
2018-09-09T04:38:57.044Z,14.20
2018-09-09T04:40:59.206Z,14.10
2018-09-09T04:43:01.368Z,14.10
2018-09-09T04:45:03.534Z,14.10
2018-09-09T04:47:05.681Z,14.20
2018-09-09T04:49:08.918Z,14.20
2018-09-09T04:51:11.242Z,14.20
2018-09-09T04:53:13.379Z,14.20
2018-09-09T04:55:15.598Z,14.20
2018-09-09T04:57:17.731Z,14.20
2018-09-09T04:59:19.865Z,14.20
2018-09-09T05:01:22.220Z,14.20
2018-09-09T05:03:24.306Z,14.30
2018-09-09T05:05:26.483Z,14.30
2018-09-09T05:07:28.647Z,14.30
2018-09-09T05:09:30.819Z,14.30
2018-09-09T05:11:33.111Z,14.40
2018-09-09T05:13:35.275Z,14.40
2018-09-09T05:15:37.475Z,14.50
2018-09-09T05:17:39.653Z,14.50
2018-09-09T05:19:42.110Z,14.60
2018-09-09T05:21:44.262Z,14.60
2018-09-09T05:23:46.429Z,14.60
2018-09-09T05:25:48.630Z,14.60
2018-09-09T05:27:50.830Z,14.70
2018-09-09T05:29:53.011Z,14.70
2018-09-09T05:31:55.183Z,14.80
2018-09-09T05:33:57.434Z,14.90
2018-09-09T05:35:59.619Z,14.70
2018-09-09T05:38:01.883Z,14.70
2018-09-09T05:40:04.262Z,14.70
2018-09-09T05:42:06.441Z,14.70
2018-09-09T05:44:08.584Z,14.60
2018-09-09T05:46:10.779Z,14.60
2018-09-09T05:48:12.970Z,14.60
2018-09-09T05:52:24.242Z,14.60
2018-09-09T05:54:26.844Z,14.70
2018-09-09T05:56:29.008Z,14.70
2018-09-09T05:58:31.138Z,14.70
2018-09-09T06:00:33.302Z,14.70
2018-09-09T06:02:35.466Z,14.60
2018-09-09T06:04:37.622Z,14.60
2018-09-09T06:06:39.842Z,14.70
2018-09-09T06:08:41.986Z,14.70
2018-09-09T06:10:45.698Z,14.80
2018-09-09T06:12:47.887Z,14.80
2018-09-09T06:14:50.070Z,14.80
2018-09-09T06:16:52.195Z,14.80
2018-09-09T06:18:54.482Z,14.90
2018-09-09T06:20:56.642Z,14.80
2018-09-09T06:22:58.785Z,14.80
2018-09-09T06:25:00.954Z,15.00
2018-09-09T06:27:03.159Z,15.00
2018-09-09T06:29:05.375Z,14.90
2018-09-09T06:31:07.828Z,15.00
2018-09-09T06:33:10.046Z,14.90
2018-09-09T06:35:12.231Z,15.10
2018-09-09T06:37:14.378Z,15.10
2018-09-09T06:39:16.509Z,15.10
2018-09-09T06:41:25.284Z,15.20
2018-09-09T06:43:27.584Z,15.20
2018-09-09T06:45:29.722Z,15.20
2018-09-09T06:47:31.891Z,15.30
2018-09-09T06:49:34.043Z,15.30
2018-09-09T06:51:36.523Z,15.20
2018-09-09T06:53:38.679Z,15.20
2018-09-09T06:55:40.817Z,15.10
2018-09-09T06:57:42.990Z,15.20
2018-09-09T06:59:45.185Z,15.20
2018-09-09T07:01:47.357Z,15.20
2018-09-09T07:03:49.608Z,15.40
2018-09-09T07:05:51.771Z,15.40
2018-09-09T07:07:54.469Z,15.40
2018-09-09T07:09:56.643Z,15.50
2018-09-09T07:11:58.932Z,15.50
2018-09-09T07:14:01.261Z,15.70
2018-09-09T07:16:03.464Z,15.70
2018-09-09T07:18:05.627Z,15.70
2018-09-09T07:20:08.146Z,15.60
2018-09-09T07:22:10.327Z,15.50
2018-09-09T07:24:12.426Z,15.60
2018-09-09T07:26:14.574Z,15.70
2018-09-09T07:28:16.706Z,15.80
2018-09-09T07:30:18.867Z,15.90
2018-09-09T07:32:21.628Z,16.00
2018-09-09T07:34:23.805Z,15.90
2018-09-09T07:36:25.934Z,15.80
2018-09-09T07:38:28.044Z,16.00
2018-09-09T07:40:30.491Z,16.10
2018-09-09T07:42:32.656Z,16.10
2018-09-09T07:44:34.827Z,16.20
2018-09-09T07:46:36.994Z,16.30
2018-09-09T07:48:39.091Z,16.30
2018-09-09T07:50:41.325Z,16.40
2018-09-09T07:52:45.762Z,16.40
2018-09-09T07:54:47.887Z,16.50
2018-09-09T07:56:50.126Z,16.50
2018-09-09T07:58:52.270Z,16.50
2018-09-09T08:00:54.676Z,16.50
2018-09-09T08:02:56.845Z,16.50
2018-09-09T08:04:59.060Z,16.50
2018-09-09T08:07:01.273Z,16.60
2018-09-09T08:09:05.472Z,16.60
2018-09-09T08:11:07.647Z,16.60
2018-09-09T08:13:09.795Z,16.70
2018-09-09T08:15:12.529Z,16.80
2018-09-09T08:17:15.147Z,16.80
2018-09-09T08:19:17.315Z,17.00
2018-09-09T08:21:19.556Z,17.10
2018-09-09T08:23:21.735Z,17.10
2018-09-09T08:25:23.890Z,17.00
2018-09-09T08:27:26.178Z,17.20
2018-09-09T08:29:28.876Z,17.20
2018-09-09T08:31:31.340Z,17.20
2018-09-09T08:33:33.514Z,17.20
2018-09-09T08:35:35.748Z,17.10
2018-09-09T08:37:37.990Z,17.20
2018-09-09T08:39:40.141Z,17.10
2018-09-09T08:41:42.585Z,17.20
2018-09-09T08:43:44.774Z,17.20
2018-09-09T08:45:46.924Z,17.20
2018-09-09T08:47:49.105Z,17.10
2018-09-09T08:49:51.414Z,17.10
2018-09-09T08:51:53.628Z,17.20
2018-09-09T08:53:55.729Z,17.30
2018-09-09T08:55:57.942Z,17.30
2018-09-09T08:58:00.094Z,17.40
2018-09-09T09:00:03.265Z,17.40
2018-09-09T09:02:05.585Z,17.40
2018-09-09T09:04:07.767Z,17.40
2018-09-09T09:06:09.939Z,17.40
2018-09-09T09:08:12.144Z,17.50
2018-09-09T09:10:14.295Z,17.50
2018-09-09T09:12:16.455Z,17.50
2018-09-09T09:14:18.580Z,17.50
2018-09-09T09:16:20.928Z,17.60
2018-09-09T09:18:23.078Z,17.60
2018-09-09T09:20:25.241Z,17.70
2018-09-09T09:22:27.387Z,17.70
2018-09-09T09:24:29.669Z,17.80
2018-09-09T09:26:31.846Z,17.80
2018-09-09T09:28:33.974Z,17.90
2018-09-09T09:30:36.131Z,17.90
2018-09-09T09:32:42.886Z,17.90
2018-09-09T09:34:45.004Z,17.90
2018-09-09T09:36:47.131Z,18.00
2018-09-09T09:38:49.297Z,18.00
2018-09-09T09:40:52.046Z,18.10
2018-09-09T09:42:54.203Z,18.30
2018-09-09T09:44:56.688Z,18.60
2018-09-09T09:46:59.755Z,18.70
2018-09-09T09:49:01.969Z,18.70
2018-09-09T09:51:04.239Z,18.70
2018-09-09T09:53:06.428Z,18.80
2018-09-09T09:55:08.600Z,19.00
2018-09-09T09:57:10.701Z,18.80
2018-09-09T09:59:12.846Z,19.00
2018-09-09T10:01:15.087Z,18.90
2018-09-09T10:03:17.327Z,19.00
2018-09-09T10:05:19.631Z,19.10
2018-09-09T10:07:21.749Z,19.20
2018-09-09T10:09:24.297Z,19.00
2018-09-09T10:11:26.569Z,18.80
2018-09-09T10:13:28.702Z,18.70
2018-09-09T10:15:31.656Z,18.70
2018-09-09T10:17:33.786Z,18.60
2018-09-09T10:19:35.959Z,18.60
2018-09-09T10:21:38.105Z,18.60
2018-09-09T10:23:40.291Z,18.70
2018-09-09T10:25:42.430Z,18.80
2018-09-09T10:27:44.881Z,18.80
2018-09-09T10:29:47.113Z,18.80
2018-09-09T10:31:49.426Z,18.70
2018-09-09T10:33:51.656Z,18.70
2018-09-09T10:35:53.770Z,18.80
2018-09-09T10:37:55.916Z,18.70
2018-09-09T10:39:58.148Z,18.80
2018-09-09T10:42:00.495Z,18.80
2018-09-09T10:44:02.773Z,18.80
2018-09-09T10:46:04.945Z,18.90
2018-09-09T10:48:07.163Z,19.00
2018-09-09T10:50:09.374Z,19.10
2018-09-09T10:52:11.461Z,19.00
2018-09-09T10:54:13.981Z,19.00
2018-09-09T10:56:16.071Z,19.00
2018-09-09T10:58:25.152Z,19.10
2018-09-09T11:00:27.379Z,19.30
2018-09-09T11:02:29.606Z,19.50
2018-09-09T11:04:31.698Z,19.80
2018-09-09T11:06:34.174Z,20.10
2018-09-09T11:08:36.274Z,20.30
2018-09-09T11:10:38.579Z,20.60
2018-09-09T11:12:40.776Z,20.70
2018-09-09T11:14:42.845Z,20.50
2018-09-09T11:16:45.062Z,20.50
2018-09-09T11:18:47.338Z,21.00
2018-09-09T11:20:49.555Z,21.50
2018-09-09T11:22:51.827Z,22.00
2018-09-09T11:24:53.989Z,22.40
2018-09-09T11:26:56.106Z,22.50
2018-09-09T11:28:58.283Z,22.10
2018-09-09T11:31:00.402Z,21.80
2018-09-09T11:33:02.558Z,22.30
2018-09-09T11:35:04.778Z,22.70
2018-09-09T11:37:07.134Z,21.90
2018-09-09T11:39:09.886Z,21.70
2018-09-09T11:41:12.038Z,21.80
2018-09-09T11:43:15.762Z,22.20
2018-09-09T11:45:17.995Z,22.40
2018-09-09T11:47:20.148Z,22.10
2018-09-09T11:49:22.375Z,21.90
2018-09-09T11:51:24.575Z,22.10
2018-09-09T11:53:26.705Z,22.60
2018-09-09T11:55:29.114Z,22.40
2018-09-09T11:57:31.295Z,22.10
2018-09-09T11:59:33.435Z,22.40
2018-09-09T12:01:35.640Z,22.90
2018-09-09T12:03:37.786Z,22.60
2018-09-09T12:05:39.927Z,22.00
2018-09-09T12:07:42.350Z,21.60
2018-09-09T12:09:44.495Z,21.40
2018-09-09T12:11:46.630Z,21.70
2018-09-09T12:13:48.996Z,22.00
2018-09-09T12:15:51.050Z,22.40
2018-09-09T12:17:53.167Z,23.10
2018-09-09T12:19:55.346Z,23.30
2018-09-09T12:21:57.476Z,23.40
2018-09-09T12:24:00.610Z,23.00
2018-09-09T12:26:02.800Z,23.10
2018-09-09T12:28:04.918Z,22.90
2018-09-09T12:30:07.054Z,23.40
2018-09-09T12:32:10.305Z,22.90
2018-09-09T12:34:12.406Z,22.90
2018-09-09T12:36:14.528Z,22.70
2018-09-09T12:38:16.957Z,22.10
2018-09-09T12:40:19.082Z,21.90
2018-09-09T12:42:21.189Z,21.90
2018-09-09T12:44:29.411Z,22.00
2018-09-09T12:46:37.556Z,23.40
2018-09-09T12:48:45.413Z,24.10
2018-09-09T12:50:47.590Z,23.60
2018-09-09T12:52:49.744Z,23.40
2018-09-09T12:54:51.871Z,23.70
2018-09-09T12:56:54.282Z,24.10
2018-09-09T12:58:57.040Z,24.50
2018-09-09T13:00:59.185Z,24.20
2018-09-09T13:03:01.659Z,23.80
2018-09-09T13:05:03.793Z,23.30
2018-09-09T13:07:06.425Z,24.10
2018-09-09T13:09:09.924Z,24.20
2018-09-09T13:11:12.079Z,23.90
2018-09-09T13:13:14.287Z,23.70
2018-09-09T13:15:16.390Z,23.30
2018-09-09T13:17:19.003Z,22.60
2018-09-09T13:19:21.188Z,22.40
2018-09-09T13:21:23.556Z,22.50
2018-09-09T13:23:26.132Z,22.30
2018-09-09T13:25:28.471Z,22.10
2018-09-09T13:27:31.957Z,22.20
2018-09-09T13:29:35.009Z,22.10
2018-09-09T13:31:38.807Z,22.60
2018-09-09T13:33:41.154Z,22.80
2018-09-09T13:35:44.158Z,22.90
2018-09-09T13:37:46.574Z,22.80
2018-09-09T13:39:48.770Z,22.70
2018-09-09T13:41:51.548Z,22.50
2018-09-09T13:43:54.469Z,22.40
2018-09-09T13:45:57.115Z,22.50
2018-09-09T13:48:01.103Z,24.30
2018-09-09T13:50:04.182Z,25.70
2018-09-09T13:52:08.491Z,26.80
2018-09-09T13:54:11.259Z,27.30
2018-09-09T13:56:14.565Z,28.20
2018-09-09T13:58:17.633Z,28.50
2018-09-09T14:00:20.165Z,28.30
2018-09-09T14:02:23.020Z,26.50
2018-09-09T14:04:25.583Z,24.70
2018-09-09T14:06:28.015Z,23.80
2018-09-09T14:08:30.518Z,23.20
2018-09-09T14:10:32.758Z,24.10
2018-09-09T14:12:35.304Z,24.20
2018-09-09T14:14:37.404Z,25.40
2018-09-09T14:16:39.793Z,26.50
2018-09-09T14:18:42.155Z,27.00
2018-09-09T14:20:44.375Z,26.40
2018-09-09T14:22:46.661Z,26.50
2018-09-09T14:24:49.802Z,27.20
2018-09-09T14:26:52.032Z,26.80
2018-09-09T14:28:54.162Z,27.60
2018-09-09T14:30:56.592Z,28.10
2018-09-09T14:32:58.752Z,28.10
2018-09-09T14:35:01.114Z,26.10
2018-09-09T14:37:03.292Z,25.40
2018-09-09T14:39:07.039Z,24.50
2018-09-09T14:41:09.198Z,24.10
2018-09-09T14:43:11.307Z,24.20
2018-09-09T14:45:13.414Z,24.70
2018-09-09T14:47:15.534Z,26.50
2018-09-09T14:49:17.694Z,27.90
2018-09-09T14:51:19.815Z,28.60
2018-09-09T14:53:22.217Z,28.80
2018-09-09T14:55:24.489Z,28.30
2018-09-09T14:57:26.661Z,28.20
2018-09-09T14:59:28.882Z,29.50
2018-09-09T15:01:31.287Z,28.30
2018-09-09T15:03:33.411Z,27.20
2018-09-09T15:05:35.593Z,28.20
2018-09-09T15:07:38.083Z,27.10
2018-09-09T15:09:40.187Z,25.60
2018-09-09T15:11:42.299Z,25.00
2018-09-09T15:13:44.492Z,24.10
2018-09-09T15:15:46.634Z,24.10
2018-09-09T15:17:48.787Z,23.70
2018-09-09T15:19:50.983Z,23.60
2018-09-09T15:21:53.089Z,23.30
2018-09-09T15:23:55.258Z,23.10
2018-09-09T15:25:57.443Z,23.00
2018-09-09T15:27:59.662Z,22.80
2018-09-09T15:30:01.881Z,22.60
2018-09-09T15:32:04.034Z,22.50
2018-09-09T15:34:06.180Z,22.50
2018-09-09T15:36:08.294Z,22.50
2018-09-09T15:38:10.618Z,22.60
2018-09-09T15:40:12.754Z,22.60
2018-09-09T15:42:14.871Z,22.70
2018-09-09T15:44:17.020Z,22.70
2018-09-09T15:46:19.170Z,22.60
2018-09-09T15:48:21.301Z,22.70
2018-09-09T15:50:23.431Z,22.70
2018-09-09T15:52:25.555Z,22.70
2018-09-09T15:56:36.871Z,22.80
2018-09-09T15:58:38.967Z,22.80
2018-09-09T16:00:41.151Z,22.80
2018-09-09T16:02:43.274Z,22.70
2018-09-09T16:04:45.401Z,22.70
2018-09-09T16:06:47.518Z,22.40
2018-09-09T16:08:49.674Z,22.30
2018-09-09T16:10:51.754Z,22.30
2018-09-09T16:12:54.232Z,22.30
2018-09-09T16:14:56.318Z,22.20
2018-09-09T16:16:58.428Z,22.40
2018-09-09T16:19:00.740Z,22.30
2018-09-09T16:21:02.937Z,22.20
2018-09-09T16:23:05.046Z,22.20
2018-09-09T16:25:07.178Z,22.20
2018-09-09T16:27:09.478Z,22.20
2018-09-09T16:29:11.697Z,22.10
2018-09-09T16:31:13.813Z,22.10
2018-09-09T16:33:18.039Z,22.00
2018-09-09T16:35:20.357Z,22.00
2018-09-09T16:37:22.497Z,22.00
2018-09-09T16:39:24.622Z,22.00
2018-09-09T16:41:26.719Z,22.00
2018-09-09T16:43:28.927Z,21.90
2018-09-09T16:45:31.074Z,21.90
2018-09-09T16:47:33.254Z,21.90
2018-09-09T16:49:35.370Z,21.80
2018-09-09T16:51:37.506Z,21.80
2018-09-09T16:53:39.638Z,21.80
2018-09-09T16:55:41.789Z,21.70
2018-09-09T16:57:43.902Z,21.70
2018-09-09T16:59:46.043Z,21.70
2018-09-09T17:01:48.178Z,21.70
2018-09-09T17:03:50.602Z,21.60
2018-09-09T17:05:52.918Z,21.60
2018-09-09T17:07:55.047Z,21.60
2018-09-09T17:09:57.198Z,21.60
2018-09-09T17:11:59.318Z,21.60
2018-09-09T17:14:01.521Z,21.60
2018-09-09T17:16:03.613Z,21.60
2018-09-09T17:18:05.736Z,21.50
2018-09-09T17:20:07.868Z,21.50
2018-09-09T17:22:10.000Z,21.50
2018-09-09T17:24:12.118Z,21.50
2018-09-09T17:26:14.250Z,21.40
2018-09-09T17:28:16.375Z,21.30
2018-09-09T17:30:18.547Z,21.30
2018-09-09T17:32:20.738Z,21.20
2018-09-09T17:34:22.853Z,21.10
2018-09-09T17:36:24.966Z,21.10
2018-09-09T17:38:27.695Z,21.10
2018-09-09T17:40:29.827Z,21.00
2018-09-09T17:42:31.992Z,20.90
2018-09-09T17:44:34.117Z,20.90
2018-09-09T17:46:36.302Z,20.80
2018-09-09T17:48:38.463Z,20.80
2018-09-09T17:50:40.786Z,20.80
2018-09-09T17:52:42.911Z,20.80
2018-09-09T17:54:45.040Z,20.70
2018-09-09T17:56:47.440Z,20.70
2018-09-09T17:58:49.684Z,20.70
2018-09-09T18:00:51.786Z,20.60
2018-09-09T18:02:54.482Z,20.50
2018-09-09T18:04:56.608Z,20.50
2018-09-09T18:06:58.727Z,20.50
2018-09-09T18:09:00.880Z,20.50
2018-09-09T18:11:03.081Z,20.40
2018-09-09T18:13:05.173Z,20.40
2018-09-09T18:15:07.660Z,20.30
2018-09-09T18:17:09.799Z,20.30
2018-09-09T18:19:11.915Z,20.30
2018-09-09T18:21:14.454Z,20.30
2018-09-09T18:23:18.086Z,20.30
2018-09-09T18:25:20.170Z,20.20
2018-09-09T18:27:22.314Z,20.20
2018-09-09T18:29:24.743Z,20.20
2018-09-09T18:31:26.835Z,20.20
2018-09-09T18:33:35.348Z,20.20
2018-09-09T18:35:37.677Z,20.20
2018-09-09T18:37:39.815Z,20.20
2018-09-09T18:39:41.986Z,20.10
2018-09-09T18:41:49.416Z,20.10
2018-09-09T18:43:51.530Z,20.10
2018-09-09T18:45:53.769Z,20.10
2018-09-09T18:47:55.909Z,20.10
2018-09-09T18:49:58.050Z,20.00
2018-09-09T18:52:00.228Z,20.00
2018-09-09T18:54:02.404Z,20.00
2018-09-09T18:56:04.985Z,19.90
2018-09-09T18:58:07.139Z,19.80
2018-09-09T19:00:09.383Z,19.80
2018-09-09T19:02:11.570Z,19.70
2018-09-09T19:04:13.861Z,19.70
2018-09-09T19:06:16.100Z,19.70
2018-09-09T19:08:18.263Z,19.70
2018-09-09T19:10:20.594Z,19.60
2018-09-09T19:12:22.870Z,19.50
2018-09-09T19:14:25.018Z,19.50
2018-09-09T19:16:27.195Z,19.50
2018-09-09T19:18:29.392Z,19.40
2018-09-09T19:20:31.582Z,19.40
2018-09-09T19:22:34.127Z,19.40
2018-09-09T19:24:36.359Z,19.40
2018-09-09T19:26:38.518Z,19.30
2018-09-09T19:28:40.951Z,19.30
2018-09-09T19:30:43.214Z,19.40
2018-09-09T19:32:45.483Z,19.40
2018-09-09T19:34:47.743Z,19.30
2018-09-09T19:36:50.210Z,19.30
2018-09-09T19:38:52.377Z,19.30
2018-09-09T19:40:54.671Z,19.20
2018-09-09T19:42:56.818Z,19.20
2018-09-09T19:44:58.959Z,19.10
2018-09-09T19:47:01.131Z,19.10
2018-09-09T19:49:03.926Z,19.10
2018-09-09T19:51:06.063Z,19.00
2018-09-09T19:53:08.216Z,19.00
2018-09-09T19:55:10.441Z,19.00
2018-09-09T19:57:12.562Z,19.00
2018-09-09T19:59:14.767Z,18.90
2018-09-09T20:01:16.894Z,18.90
2018-09-09T20:03:19.054Z,18.80
2018-09-09T20:05:21.378Z,18.80
2018-09-09T20:07:23.534Z,18.80
2018-09-09T20:09:25.753Z,18.70
2018-09-09T20:11:27.870Z,18.70
2018-09-09T20:13:30.086Z,18.80
2018-09-09T20:15:32.202Z,18.80
2018-09-09T20:17:34.338Z,18.70
2018-09-09T20:19:36.518Z,18.70
2018-09-09T20:21:38.662Z,18.70
2018-09-09T20:23:40.783Z,18.60
2018-09-09T20:25:42.921Z,18.60
2018-09-09T20:27:45.018Z,18.60
2018-09-09T20:29:47.433Z,18.50
2018-09-09T20:31:50.301Z,18.40
2018-09-09T20:33:52.464Z,18.40
2018-09-09T20:35:54.671Z,18.40
2018-09-09T20:37:56.784Z,18.30
2018-09-09T20:39:58.914Z,18.30
2018-09-09T20:42:01.293Z,18.30
2018-09-09T20:44:04.007Z,18.30
2018-09-09T20:46:06.275Z,18.30
2018-09-09T20:48:08.411Z,18.30
2018-09-09T20:50:10.631Z,18.40
2018-09-09T20:52:12.738Z,18.30
2018-09-09T20:54:15.116Z,18.30
2018-09-09T20:56:17.226Z,18.30
2018-09-09T20:58:19.326Z,18.30
2018-09-09T21:00:21.789Z,18.30
2018-09-09T21:02:23.874Z,18.30
2018-09-09T21:04:26.012Z,18.30
2018-09-09T21:06:28.201Z,18.30
2018-09-09T21:08:30.355Z,18.20
2018-09-09T21:10:32.546Z,18.20
2018-09-09T21:12:34.783Z,18.20
2018-09-09T21:14:37.010Z,18.20
2018-09-09T21:16:39.255Z,18.20
2018-09-09T21:18:41.356Z,18.20
2018-09-09T21:20:43.535Z,18.20
2018-09-09T21:22:45.722Z,18.20
2018-09-09T21:24:48.191Z,18.10
2018-09-09T21:26:50.370Z,18.10
2018-09-09T21:28:52.533Z,18.10
2018-09-09T21:30:55.003Z,18.10
2018-09-09T21:32:57.466Z,18.10
2018-09-09T21:34:59.627Z,18.00
2018-09-09T21:37:01.799Z,18.00
2018-09-09T21:39:06.475Z,18.00
2018-09-09T21:41:08.585Z,17.90
2018-09-09T21:43:10.974Z,17.90
2018-09-09T21:45:13.160Z,18.00
2018-09-09T21:49:24.123Z,18.00
2018-09-09T21:53:35.158Z,17.70
2018-09-09T21:55:37.350Z,17.80
2018-09-09T21:57:39.594Z,17.80
2018-09-09T21:59:41.762Z,17.80
2018-09-09T22:01:49.558Z,17.70
2018-09-09T22:03:57.576Z,17.70
2018-09-09T22:05:59.697Z,17.70
2018-09-09T22:08:01.858Z,17.70
2018-09-09T22:10:04.608Z,17.70
2018-09-09T22:12:07.127Z,17.60
2018-09-09T22:14:09.247Z,17.60
2018-09-09T22:16:11.767Z,17.70
2018-09-09T22:18:14.092Z,17.60
2018-09-09T22:20:16.230Z,17.60
2018-09-09T22:22:20.063Z,17.50
2018-09-09T22:24:22.202Z,17.40
2018-09-09T22:26:24.334Z,17.50
2018-09-09T22:28:33.223Z,17.40
2018-09-09T22:30:35.340Z,17.50
2018-09-09T22:32:37.510Z,17.50
2018-09-09T22:34:39.932Z,17.50
2018-09-09T22:36:42.146Z,17.50
2018-09-09T22:38:44.290Z,17.40
2018-09-09T22:40:46.506Z,17.40
2018-09-09T22:42:48.736Z,17.40
2018-09-09T22:44:50.899Z,17.40
2018-09-09T22:46:53.434Z,17.30
2018-09-09T22:48:55.558Z,17.40
2018-09-09T22:50:57.707Z,17.30
2018-09-09T22:52:59.862Z,17.40
2018-09-09T22:55:02.050Z,17.30
2018-09-09T22:57:04.228Z,17.30
2018-09-09T22:59:06.369Z,17.20
2018-09-09T23:01:08.619Z,17.20
2018-09-09T23:03:10.942Z,17.20
2018-09-09T23:05:13.098Z,17.20
2018-09-09T23:07:15.214Z,17.20
2018-09-09T23:09:17.329Z,17.20
2018-09-09T23:11:19.461Z,17.20
2018-09-09T23:13:21.606Z,17.20
2018-09-09T23:15:26.096Z,17.10
2018-09-09T23:17:28.255Z,17.20
2018-09-09T23:19:30.387Z,17.10
2018-09-09T23:21:32.496Z,17.10
2018-09-09T23:23:34.667Z,17.10
2018-09-09T23:25:36.795Z,17.10
2018-09-09T23:27:38.925Z,17.10
2018-09-09T23:29:41.038Z,17.10
2018-09-09T23:31:43.210Z,17.10
2018-09-09T23:33:45.342Z,17.10
2018-09-09T23:35:47.531Z,17.10
2018-09-09T23:37:49.654Z,17.00
2018-09-09T23:39:51.826Z,17.10
2018-09-09T23:41:53.974Z,17.10
2018-09-09T23:43:56.098Z,17.10
2018-09-09T23:45:58.236Z,17.10
2018-09-09T23:48:00.386Z,17.00
2018-09-09T23:50:02.766Z,16.90
2018-09-09T23:52:04.969Z,17.00
2018-09-09T23:54:07.071Z,16.90
2018-09-09T23:56:09.276Z,16.90
2018-09-09T23:58:11.461Z,17.00
